Time;durP1;ratioP1;P1;durP2;ratioP2;P2;SDS_P1;SDS_P2;PMS_P1;PMS_P2;Temp;Humidity;BMP_temperature;BMP_pressure;BME280_temperature;BME280_humidity;BME280_pressure;Samples;Min_cycle;Max_cycle;Signal;HPM_P1;HPM_P2
2022/09/25 00:01:58;;;;;;;23.15;17.52;;;;;;;;;;5033066;28;20021;-77
2022/09/25 00:04:24;;;;;;;25.95;18.95;;;;;;;;;;5032374;28;20021;-78
2022/09/25 00:06:50;;;;;;;21.63;17.67;;;;;;;;;;5032558;28;20104;-77
2022/09/25 00:09:22;;;;;;;20.83;17.10;;;;;;;;;;5013505;28;20037;-77
2022/09/25 00:12:07;;;;;;;22.70;18.05;;;;;;;;;;5014052;28;20473;-79
2022/09/25 00:14:35;;;;;;;27.13;20.10;;;;;;;;;;5028401;28;20021;-77
2022/09/25 00:17:01;;;;;;;22.08;19.38;;;;;;;;;;5031393;28;20029;-77
2022/09/25 00:20:00;;;;;;;24.42;19.13;;;;;;;;;;5031416;28;20101;-77
2022/09/25 00:22:26;;;;;;;25.00;18.63;;;;;;;;;;5024813;28;20057;-77
2022/09/25 00:25:08;;;;;;;22.77;17.67;;;;;;;;;;5031700;28;20675;-78
2022/09/25 00:27:34;;;;;;;;;;;;;;;;;;5031774;28;20021;-78
2022/09/25 00:30:03;;;;;;;22.65;18.08;;;;;;;;;;5033061;28;20591;-79
2022/09/25 00:32:41;;;;;;;22.65;18.05;;;;;;;;;;5033885;28;20037;-78
2022/09/25 00:35:10;;;;;;;22.13;17.13;;;;;;;;;;5021085;28;20044;-79
2022/09/25 00:37:39;;;;;;;20.35;16.80;;;;;;;;;;5031612;28;20498;-79
2022/09/25 00:40:08;;;;;;;20.45;16.65;;;;;;;;;;5014203;28;20022;-78
2022/09/25 00:42:36;;;;;;;19.58;17.23;;;;;;;;;;5031987;28;20071;-79
2022/09/25 00:45:06;;;;;;;22.67;17.02;;;;;;;;;;5021729;28;20033;-77
2022/09/25 00:47:38;;;;;;;20.10;16.58;;;;;;;;;;5030780;28;20029;-78
2022/09/25 00:50:11;;;;;;;22.02;15.70;;;;;;;;;;5029839;28;20163;-79
2022/09/25 00:52:36;;;;;;;20.90;16.88;;;;;;;;;;5031567;28;20056;-78
2022/09/25 00:55:06;;;;;;;19.67;16.38;;;;;;;;;;5031318;28;20100;-78
2022/09/25 00:57:35;;;;;;;21.20;17.23;;;;;;;;;;5032274;28;20036;-78
2022/09/25 01:00:05;;;;;;;19.08;14.98;;;;;;;;;;5032092;28;20070;-78
2022/09/25 01:02:34;;;;;;;17.73;15.35;;;;;;;;;;5031498;28;20088;-78
2022/09/25 01:05:02;;;;;;;21.35;14.35;;;;;;;;;;5030662;28;20172;-78
2022/09/25 01:07:28;;;;;;;18.27;15.15;;;;;;;;;;5013479;28;20040;-79
2022/09/25 01:10:01;;;;;;;21.08;15.38;;;;;;;;;;5031915;28;20088;-78
2022/09/25 01:12:29;;;;;;;17.00;14.00;;;;;;;;;;5031311;28;20029;-78
2022/09/25 01:14:56;;;;;;;16.58;13.88;;;;;;;;;;5030746;28;20487;-78
2022/09/25 01:17:22;;;;;;;16.15;13.30;;;;;;;;;;5030804;28;20498;-77
2022/09/25 01:20:14;;;;;;;17.55;12.43;;;;;;;;;;5032074;28;20026;-78
2022/09/25 01:22:40;;;;;;;15.52;12.93;;;;;;;;;;5027132;28;20014;-78
2022/09/25 01:25:06;;;;;;;14.23;11.23;;;;;;;;;;5057224;28;20026;-79
2022/09/25 01:27:35;;;;;;;14.55;11.40;;;;;;;;;;5055064;28;20025;-78
2022/09/25 01:30:07;;;;;;;14.43;11.23;;;;;;;;;;5042355;28;20132;-76
2022/09/25 01:32:53;;;;;;;15.48;11.90;;;;;;;;;;5031102;28;20025;-77
2022/09/25 01:35:42;;;;;;;13.60;12.15;;;;;;;;;;5020247;28;20026;-77
2022/09/25 01:38:12;;;;;;;16.10;11.68;;;;;;;;;;5028806;28;20052;-76
2022/09/25 01:40:40;;;;;;;15.05;12.65;;;;;;;;;;5027610;28;20439;-78
2022/09/25 01:43:09;;;;;;;16.10;13.32;;;;;;;;;;5030341;28;20029;-78
2022/09/25 01:45:56;;;;;;;13.85;12.38;;;;;;;;;;5012877;28;20466;-78
2022/09/25 01:48:32;;;;;;;16.45;12.18;;;;;;;;;;5012349;28;20021;-77
2022/09/25 01:51:01;;;;;;;16.73;11.98;;;;;;;;;;5030476;28;20339;-76
2022/09/25 01:53:31;;;;;;;12.73;11.30;;;;;;;;;;5030584;28;20021;-77
2022/09/25 01:56:06;;;;;;;14.82;11.95;;;;;;;;;;5030570;28;20426;-77
2022/09/25 01:58:38;;;;;;;13.82;11.70;;;;;;;;;;5011892;28;20488;-76
2022/09/25 02:01:09;;;;;;;13.90;11.88;;;;;;;;;;5030158;28;20167;-79
2022/09/25 02:03:42;;;;;;;15.57;11.55;;;;;;;;;;5030450;28;20055;-77
2022/09/25 02:06:12;;;;;;;14.77;11.52;;;;;;;;;;5030046;28;20067;-77
2022/09/25 02:08:56;;;;;;;14.60;11.70;;;;;;;;;;5029907;28;20034;-78
2022/09/25 02:11:25;;;;;;;13.65;10.48;;;;;;;;;;5030556;28;20030;-77
2022/09/25 02:13:56;;;;;;;13.95;11.23;;;;;;;;;;5030419;28;20025;-77
2022/09/25 02:16:27;;;;;;;13.48;10.85;;;;;;;;;;5030232;28;20020;-75
2022/09/25 02:21:49;;;;;;;11.32;9.43;;;;;;;;;;5030398;28;20255;-76
2022/09/25 02:24:24;;;;;;;12.60;10.02;;;;;;;;;;5030480;28;20033;-77
2022/09/25 02:26:51;;;;;;;14.00;9.50;;;;;;;;;;5018330;28;20029;-77
2022/09/25 02:29:17;;;;;;;11.23;9.27;;;;;;;;;;5029334;28;20044;-75
2022/09/25 02:31:48;;;;;;;13.75;9.07;;;;;;;;;;5030228;28;20017;-77
2022/09/25 02:34:14;;;;;;;;;;;;;;;;;;5012947;28;20485;-77
2022/09/25 02:36:41;;;;;;;11.18;9.23;;;;;;;;;;5052862;22;19921;-79
2022/09/25 02:39:08;;;;;;;11.65;9.65;;;;;;;;;;5030534;28;20079;-75
2022/09/25 02:41:34;;;;;;;10.57;9.15;;;;;;;;;;5033160;28;20021;-76
2022/09/25 02:44:12;;;;;;;10.35;9.25;;;;;;;;;;5033668;28;20032;-75
2022/09/25 02:46:48;;;;;;;12.07;10.13;;;;;;;;;;5033114;28;20101;-76
2022/09/25 02:49:20;;;;;;;11.00;8.98;;;;;;;;;;5033246;28;20400;-75
2022/09/25 02:51:49;;;;;;;12.10;9.45;;;;;;;;;;5029308;28;20030;-75
2022/09/25 02:54:19;;;;;;;11.70;9.02;;;;;;;;;;5033295;28;20026;-76
2022/09/25 02:56:52;;;;;;;10.50;9.07;;;;;;;;;;5020971;28;20498;-75
2022/09/25 02:59:30;;;;;;;12.45;9.48;;;;;;;;;;5032542;28;20535;-76
2022/09/25 03:01:57;;;;;;;11.85;9.43;;;;;;;;;;5015547;28;20030;-75
2022/09/25 03:04:25;;;;;;;14.40;10.02;;;;;;;;;;5032903;28;20146;-76
2022/09/25 03:06:51;;;;;;;13.50;9.55;;;;;;;;;;5033083;28;20579;-75
2022/09/25 03:09:18;;;;;;;12.60;9.95;;;;;;;;;;5014518;28;20081;-75
2022/09/25 03:11:44;;;;;;;10.98;9.70;;;;;;;;;;5033114;28;20028;-75
2022/09/25 03:14:10;;;;;;;13.32;11.02;;;;;;;;;;5032880;28;20053;-75
2022/09/25 03:16:42;;;;;;;12.68;10.23;;;;;;;;;;4996595;28;20107;-75
2022/09/25 03:19:08;;;;;;;12.75;10.02;;;;;;;;;;5026377;28;20076;-74
2022/09/25 03:21:34;;;;;;;12.55;9.65;;;;;;;;;;5032698;28;20022;-74
2022/09/25 03:24:00;;;;;;;15.07;9.52;;;;;;;;;;5033306;28;20234;-75
2022/09/25 03:26:26;;;;;;;11.32;9.63;;;;;;;;;;5032409;28;20061;-75
2022/09/25 03:28:53;;;;;;;11.23;8.82;;;;;;;;;;5032006;28;20025;-75
2022/09/25 03:31:19;;;;;;;13.13;9.75;;;;;;;;;;5032316;28;20369;-75
2022/09/25 03:33:46;;;;;;;11.52;9.18;;;;;;;;;;5032476;28;20506;-75
2022/09/25 03:36:12;;;;;;;10.52;8.75;;;;;;;;;;5029441;28;20037;-75
2022/09/25 03:38:41;;;;;;;12.95;9.02;;;;;;;;;;5031720;28;20075;-75
2022/09/25 03:41:08;;;;;;;9.93;8.90;;;;;;;;;;5032085;28;20064;-75
2022/09/25 03:43:38;;;;;;;10.30;8.90;;;;;;;;;;5032678;28;20380;-75
2022/09/25 03:46:05;;;;;;;12.77;8.93;;;;;;;;;;5031999;28;20025;-76
2022/09/25 03:48:31;;;;;;;12.68;9.30;;;;;;;;;;5031994;28;20514;-75
2022/09/25 03:50:57;;;;;;;11.43;8.77;;;;;;;;;;5013745;28;20030;-75
2022/09/25 03:53:24;;;;;;;11.48;8.32;;;;;;;;;;5032770;28;20026;-75
2022/09/25 03:55:50;;;;;;;9.98;7.50;;;;;;;;;;5032455;28;20510;-76
2022/09/25 03:58:17;;;;;;;10.98;7.90;;;;;;;;;;5031077;28;20057;-76
2022/09/25 04:00:44;;;;;;;10.48;8.77;;;;;;;;;;5031734;28;20056;-75
2022/09/25 04:03:10;;;;;;;11.48;8.07;;;;;;;;;;5031785;28;20022;-75
2022/09/25 04:05:36;;;;;;;10.88;8.25;;;;;;;;;;5032149;28;20108;-75
2022/09/25 04:08:03;;;;;;;11.18;7.90;;;;;;;;;;5013535;28;20021;-75
2022/09/25 04:10:29;;;;;;;9.25;7.30;;;;;;;;;;5032110;28;20018;-75
2022/09/25 04:12:56;;;;;;;11.23;7.55;;;;;;;;;;5031830;28;20222;-75
2022/09/25 04:15:22;;;;;;;11.73;8.20;;;;;;;;;;5014320;28;20454;-76
2022/09/25 04:17:48;;;;;;;12.32;8.13;;;;;;;;;;5031393;28;20017;-75
2022/09/25 04:20:14;;;;;;;12.40;7.75;;;;;;;;;;5031876;28;20096;-76
2022/09/25 04:22:40;;;;;;;11.80;7.38;;;;;;;;;;5031824;28;20025;-76
2022/09/25 04:25:08;;;;;;;10.50;7.57;;;;;;;;;;5031520;28;20381;-75
2022/09/25 04:27:34;;;;;;;9.70;7.60;;;;;;;;;;5030858;28;20229;-74
2022/09/25 04:30:00;;;;;;;10.30;6.93;;;;;;;;;;5031413;28;20033;-74
2022/09/25 04:35:11;;;;;;;8.82;7.30;;;;;;;;;;5020178;28;20093;-74
2022/09/25 04:37:37;;;;;;;8.52;7.18;;;;;;;;;;5030656;28;20061;-74
2022/09/25 04:40:03;;;;;;;8.63;7.40;;;;;;;;;;5031435;28;20021;-74
2022/09/25 04:42:29;;;;;;;10.25;8.23;;;;;;;;;;5031296;28;20021;-74
2022/09/25 04:44:56;;;;;;;11.23;8.07;;;;;;;;;;5031074;28;20026;-74
2022/09/25 04:47:23;;;;;;;10.10;7.63;;;;;;;;;;5030583;28;20067;-72
2022/09/25 04:49:49;;;;;;;9.82;7.88;;;;;;;;;;5031134;28;20021;-74
2022/09/25 04:52:16;;;;;;;9.02;7.78;;;;;;;;;;5031105;28;20096;-75
2022/09/25 04:54:42;;;;;;;9.75;7.93;;;;;;;;;;5030610;28;20048;-74
2022/09/25 04:57:15;;;;;;;10.35;8.68;;;;;;;;;;5030468;28;20472;-74
2022/09/25 04:59:41;;;;;;;10.40;7.90;;;;;;;;;;5031232;28;20017;-74
2022/09/25 05:02:07;;;;;;;8.75;7.80;;;;;;;;;;5031011;28;20092;-75
2022/09/25 05:04:33;;;;;;;12.20;8.82;;;;;;;;;;5030871;28;20052;-74
2022/09/25 05:06:59;;;;;;;10.88;8.20;;;;;;;;;;5030379;28;20057;-74
2022/09/25 05:09:25;;;;;;;11.77;8.70;;;;;;;;;;5030250;28;20067;-74
2022/09/25 05:11:51;;;;;;;9.82;7.70;;;;;;;;;;5013160;28;20029;-74
2022/09/25 05:14:17;;;;;;;10.95;7.93;;;;;;;;;;5013157;28;20026;-74
2022/09/25 05:16:45;;;;;;;9.50;7.65;;;;;;;;;;5013224;28;20479;-76
2022/09/25 05:19:11;;;;;;;12.60;7.47;;;;;;;;;;5030163;28;20048;-77
2022/09/25 05:21:37;;;;;;;9.35;7.57;;;;;;;;;;5031060;28;20026;-74
2022/09/25 05:24:03;;;;;;;10.50;7.80;;;;;;;;;;5030586;28;20040;-74
2022/09/25 05:26:29;;;;;;;10.88;7.68;;;;;;;;;;5030433;28;20028;-75
2022/09/25 05:28:55;;;;;;;10.68;8.35;;;;;;;;;;5029772;28;20029;-76
2022/09/25 05:31:21;;;;;;;10.82;8.15;;;;;;;;;;5030726;28;20443;-75
2022/09/25 05:33:47;;;;;;;12.63;8.02;;;;;;;;;;5030762;28;20115;-75
2022/09/25 05:36:13;;;;;;;12.80;8.20;;;;;;;;;;5027415;28;20025;-74
2022/09/25 05:38:40;;;;;;;10.20;7.85;;;;;;;;;;5029877;28;20025;-74
2022/09/25 05:41:07;;;;;;;9.73;7.45;;;;;;;;;;5030064;28;20044;-74
2022/09/25 05:43:34;;;;;;;9.43;7.40;;;;;;;;;;5030639;28;20029;-75
2022/09/25 05:46:00;;;;;;;8.82;7.20;;;;;;;;;;5030246;28;20025;-74
2022/09/25 05:48:26;;;;;;;9.15;7.28;;;;;;;;;;5029794;28;20021;-74
2022/09/25 05:50:53;;;;;;;11.40;8.68;;;;;;;;;;5030248;28;20388;-74
2022/09/25 05:53:19;;;;;;;12.50;7.32;;;;;;;;;;5030239;28;20040;-74
2022/09/25 05:55:51;;;;;;;10.98;7.43;;;;;;;;;;5030623;28;20101;-75
2022/09/25 05:58:17;;;;;;;9.98;7.43;;;;;;;;;;5028884;28;20014;-75
2022/09/25 06:00:44;;;;;;;9.63;7.10;;;;;;;;;;5030160;28;20441;-75
2022/09/25 06:03:10;;;;;;;11.88;7.53;;;;;;;;;;5030623;28;20026;-75
2022/09/25 06:05:36;;;;;;;8.65;7.07;;;;;;;;;;5030637;28;20442;-76
2022/09/25 06:08:03;;;;;;;10.00;6.13;;;;;;;;;;5030244;28;20026;-75
2022/09/25 06:10:29;;;;;;;8.73;6.70;;;;;;;;;;5027877;28;20080;-75
2022/09/25 06:12:57;;;;;;;7.70;6.90;;;;;;;;;;5027960;28;20033;-76
2022/09/25 06:15:24;;;;;;;9.25;6.43;;;;;;;;;;5033545;28;20411;-76
2022/09/25 06:17:50;;;;;;;10.40;6.93;;;;;;;;;;5033319;28;20013;-76
2022/09/25 06:20:16;;;;;;;8.50;6.65;;;;;;;;;;5026893;28;20418;-76
2022/09/25 06:22:43;;;;;;;10.50;6.80;;;;;;;;;;5033570;28;20030;-75
2022/09/25 06:25:09;;;;;;;8.38;6.43;;;;;;;;;;5033700;28;20369;-76
2022/09/25 06:27:36;;;;;;;7.60;6.47;;;;;;;;;;5033459;28;20171;-76
2022/09/25 06:30:02;;;;;;;9.85;6.55;;;;;;;;;;5031501;28;20502;-76
2022/09/25 06:32:28;;;;;;;8.10;6.25;;;;;;;;;;5033929;28;20108;-76
2022/09/25 06:34:54;;;;;;;9.82;6.15;;;;;;;;;;5031931;28;20112;-74
2022/09/25 06:37:20;;;;;;;8.93;6.57;;;;;;;;;;5031850;28;20036;-74
2022/09/25 06:39:46;;;;;;;9.55;6.55;;;;;;;;;;5033394;28;20029;-75
2022/09/25 06:42:12;;;;;;;8.70;5.85;;;;;;;;;;5033698;28;20014;-75
2022/09/25 06:44:38;;;;;;;8.38;5.78;;;;;;;;;;5033464;28;20460;-75
2022/09/25 06:47:04;;;;;;;7.82;6.70;;;;;;;;;;5032954;28;20041;-71
2022/09/25 06:49:30;;;;;;;9.25;6.63;;;;;;;;;;5031826;28;20108;-73
2022/09/25 06:51:56;;;;;;;8.98;6.60;;;;;;;;;;5032487;28;20480;-71
2022/09/25 06:54:22;;;;;;;9.45;7.07;;;;;;;;;;5032826;28;20064;-72
2022/09/25 06:56:48;;;;;;;9.05;7.25;;;;;;;;;;5033250;28;20045;-74
2022/09/25 06:59:14;;;;;;;9.50;6.75;;;;;;;;;;5031701;28;20399;-73
2022/09/25 07:01:40;;;;;;;9.20;6.88;;;;;;;;;;5033473;28;20023;-73
2022/09/25 07:04:06;;;;;;;8.88;7.13;;;;;;;;;;5033988;28;20478;-72
2022/09/25 07:06:33;;;;;;;11.75;7.18;;;;;;;;;;5033471;28;20030;-74
2022/09/25 07:09:00;;;;;;;8.35;6.60;;;;;;;;;;5014997;28;20107;-72
2022/09/25 07:11:27;;;;;;;8.18;6.43;;;;;;;;;;5033336;28;20452;-73
2022/09/25 07:13:53;;;;;;;9.88;6.47;;;;;;;;;;5033334;28;20036;-72
2022/09/25 07:16:20;;;;;;;12.90;7.60;;;;;;;;;;5032912;28;20024;-72
2022/09/25 07:18:46;;;;;;;9.15;7.13;;;;;;;;;;5032529;28;20045;-72
2022/09/25 07:21:14;;;;;;;8.45;6.80;;;;;;;;;;5032970;28;20017;-72
2022/09/25 07:23:43;;;;;;;10.70;6.95;;;;;;;;;;5032939;28;20026;-73
2022/09/25 07:26:09;;;;;;;10.02;7.60;;;;;;;;;;5031622;28;20495;-71
2022/09/25 07:28:36;;;;;;;11.45;8.10;;;;;;;;;;5032311;28;20029;-72
2022/09/25 07:31:16;;;;;;;8.77;7.35;;;;;;;;;;5033006;28;20560;-72
2022/09/25 07:33:42;;;;;;;10.68;8.70;;;;;;;;;;5032824;28;20108;-74
2022/09/25 07:36:08;;;;;;;11.25;7.57;;;;;;;;;;5022692;28;20034;-73
2022/09/25 07:38:35;;;;;;;8.95;7.50;;;;;;;;;;5014751;28;20017;-73
2022/09/25 07:41:02;;;;;;;9.82;7.97;;;;;;;;;;5032344;28;20465;-73
2022/09/25 07:43:28;;;;;;;10.93;8.23;;;;;;;;;;5031074;28;20025;-73
2022/09/25 07:45:54;;;;;;;8.57;6.43;;;;;;;;;;5028472;28;20056;-73
2022/09/25 07:48:21;;;;;;;9.55;7.63;;;;;;;;;;5029696;28;20030;-72
2022/09/25 07:50:50;;;;;;;9.80;7.38;;;;;;;;;;5031389;28;20083;-73
2022/09/25 07:53:19;;;;;;;11.45;6.90;;;;;;;;;;5030266;28;20026;-73
2022/09/25 07:55:46;;;;;;;9.63;7.10;;;;;;;;;;5031411;28;20029;-73
2022/09/25 07:58:12;;;;;;;12.80;7.43;;;;;;;;;;5031399;28;20071;-73
2022/09/25 08:00:39;;;;;;;11.10;7.18;;;;;;;;;;5032452;28;20017;-74
2022/09/25 08:03:06;;;;;;;8.55;5.75;;;;;;;;;;5031935;28;20045;-74
2022/09/25 08:05:32;;;;;;;9.00;6.32;;;;;;;;;;5031403;28;20025;-75
2022/09/25 08:07:58;;;;;;;9.52;6.50;;;;;;;;;;5030015;28;20025;-74
2022/09/25 08:10:24;;;;;;;9.98;6.78;;;;;;;;;;5031571;28;20025;-75
2022/09/25 08:12:50;;;;;;;10.98;6.55;;;;;;;;;;5031725;28;20026;-74
2022/09/25 08:15:16;;;;;;;7.88;5.97;;;;;;;;;;5032422;28;20028;-74
2022/09/25 08:17:43;;;;;;;9.38;7.13;;;;;;;;;;5031474;28;20088;-74
2022/09/25 08:20:09;;;;;;;9.20;6.93;;;;;;;;;;5032262;28;20105;-73
2022/09/25 08:22:35;;;;;;;8.60;6.50;;;;;;;;;;5031926;28;20394;-75
2022/09/25 08:25:02;;;;;;;8.07;7.05;;;;;;;;;;5032151;28;20033;-75
2022/09/25 08:27:28;;;;;;;12.45;8.13;;;;;;;;;;5031222;28;20020;-75
2022/09/25 08:29:54;;;;;;;9.90;7.32;;;;;;;;;;5013935;28;20025;-75
2022/09/25 08:32:20;;;;;;;11.50;7.68;;;;;;;;;;5032179;28;20017;-75
2022/09/25 08:34:47;;;;;;;9.15;6.60;;;;;;;;;;5030999;28;20075;-73
2022/09/25 08:37:14;;;;;;;14.40;6.50;;;;;;;;;;5049431;22;20072;-77
2022/09/25 08:39:40;;;;;;;12.10;7.00;;;;;;;;;;5014200;28;20028;-77
2022/09/25 08:42:06;;;;;;;6.68;5.72;;;;;;;;;;5032213;28;20034;-77
2022/09/25 08:44:41;;;;;;;8.55;6.57;;;;;;;;;;5031939;28;20030;-77
2022/09/25 08:50:21;;;;;;;9.23;6.25;;;;;;;;;;5031791;28;20028;-77
2022/09/25 08:52:53;;;;;;;10.05;6.38;;;;;;;;;;5022479;28;20045;-76
2022/09/25 08:58:22;;;;;;;6.63;5.95;;;;;;;;;;5002165;28;20017;-77
2022/09/25 09:00:48;;;;;;;8.70;6.32;;;;;;;;;;5030109;28;20021;-77
2022/09/25 09:03:15;;;;;;;10.13;6.70;;;;;;;;;;5030873;28;20399;-76
2022/09/25 09:05:44;;;;;;;8.35;6.50;;;;;;;;;;5031573;28;20025;-76
2022/09/25 09:08:13;;;;;;;7.78;6.97;;;;;;;;;;5030592;28;20026;-75
2022/09/25 09:11:02;;;;;;;9.05;6.50;;;;;;;;;;5032133;28;20072;-77
2022/09/25 09:13:33;;;;;;;10.15;6.50;;;;;;;;;;5031844;28;20026;-77
2022/09/25 09:16:08;;;;;;;9.05;6.60;;;;;;;;;;5031571;28;20046;-77
2022/09/25 09:18:39;;;;;;;8.63;6.07;;;;;;;;;;5029655;28;20523;-77
2022/09/25 09:21:40;;;;;;;7.03;5.80;;;;;;;;;;5029982;28;20120;-77
2022/09/25 09:24:06;;;;;;;8.00;7.20;;;;;;;;;;5024707;28;20034;-77
2022/09/25 09:26:44;;;;;;;11.80;7.10;;;;;;;;;;5028169;28;20470;-76
2022/09/25 09:29:13;;;;;;;8.30;6.90;;;;;;;;;;5031073;28;20032;-77
2022/09/25 09:31:52;;;;;;;10.88;7.40;;;;;;;;;;5031544;28;20475;-76
2022/09/25 09:34:37;;;;;;;10.73;7.18;;;;;;;;;;5031529;28;20018;-77
2022/09/25 09:37:10;;;;;;;8.43;6.60;;;;;;;;;;5031640;28;20029;-74
2022/09/25 09:39:48;;;;;;;10.30;7.60;;;;;;;;;;5031769;28;20029;-77
2022/09/25 09:42:32;;;;;;;10.55;7.30;;;;;;;;;;5032314;28;20056;-77
2022/09/25 09:45:16;;;;;;;10.05;8.20;;;;;;;;;;5031753;28;20054;-76
2022/09/25 09:48:11;;;;;;;9.70;7.82;;;;;;;;;;5031522;28;20049;-77
2022/09/25 09:50:49;;;;;;;10.32;8.25;;;;;;;;;;5004727;28;20038;-77
2022/09/25 09:53:36;;;;;;;11.00;7.95;;;;;;;;;;5031386;28;20018;-77
2022/09/25 09:56:13;;;;;;;9.70;7.38;;;;;;;;;;5031619;28;20108;-78
2022/09/25 09:58:51;;;;;;;7.93;6.75;;;;;;;;;;5032331;28;20014;-77
2022/09/25 10:01:19;;;;;;;11.25;7.20;;;;;;;;;;5032073;28;20025;-77
2022/09/25 10:03:46;;;;;;;9.15;7.65;;;;;;;;;;5030544;28;20028;-78
2022/09/25 10:06:14;;;;;;;12.65;8.95;;;;;;;;;;5031201;28;20072;-78
2022/09/25 10:08:41;;;;;;;9.43;8.40;;;;;;;;;;5030266;28;20479;-77
2022/09/25 10:11:20;;;;;;;11.48;8.65;;;;;;;;;;5031160;28;20021;-77
2022/09/25 10:13:47;;;;;;;12.82;8.90;;;;;;;;;;5029559;28;20029;-77
2022/09/25 10:16:21;;;;;;;10.10;8.18;;;;;;;;;;5030513;28;20026;-76
2022/09/25 10:18:56;;;;;;;13.07;9.00;;;;;;;;;;5030389;28;20045;-77
2022/09/25 10:21:24;;;;;;;11.23;7.78;;;;;;;;;;5030513;28;20055;-77
2022/09/25 10:23:52;;;;;;;11.43;8.35;;;;;;;;;;5029368;28;20117;-77
2022/09/25 10:26:36;;;;;;;9.80;8.80;;;;;;;;;;5030529;28;20018;-77
2022/09/25 10:29:25;;;;;;;10.32;8.80;;;;;;;;;;5029981;28;20145;-77
2022/09/25 10:32:02;;;;;;;9.85;7.72;;;;;;;;;;5030690;28;20452;-77
2022/09/25 10:34:30;;;;;;;9.07;7.13;;;;;;;;;;5030095;28;20043;-77
2022/09/25 10:36:56;;;;;;;9.70;8.27;;;;;;;;;;5030330;28;20030;-77
2022/09/25 10:39:30;;;;;;;7.28;6.47;;;;;;;;;;5030379;28;20029;-75
2022/09/25 10:41:57;;;;;;;11.20;7.95;;;;;;;;;;5043121;28;20388;-77
2022/09/25 10:44:44;;;;;;;9.00;7.30;;;;;;;;;;5030522;28;20021;-77
2022/09/25 10:50:12;;;;;;;9.10;7.78;;;;;;;;;;5018320;28;20036;-77
2022/09/25 10:52:58;;;;;;;7.70;6.20;;;;;;;;;;5029390;28;20045;-78
2022/09/25 10:55:30;;;;;;;8.48;7.03;;;;;;;;;;5030340;28;20034;-77
2022/09/25 10:58:11;;;;;;;7.20;6.47;;;;;;;;;;5028410;28;20034;-76
2022/09/25 11:00:57;;;;;;;7.75;5.97;;;;;;;;;;5032076;28;20025;-77
2022/09/25 11:03:29;;;;;;;8.35;5.47;;;;;;;;;;5020315;28;20021;-77
2022/09/25 11:05:56;;;;;;;5.75;5.18;;;;;;;;;;5034342;28;20037;-77
2022/09/25 11:08:24;;;;;;;6.75;5.35;;;;;;;;;;5033097;28;20029;-77
2022/09/25 11:10:52;;;;;;;5.57;4.57;;;;;;;;;;5033914;28;20029;-76
2022/09/25 11:13:23;;;;;;;6.57;4.57;;;;;;;;;;5032272;28;20022;-77
2022/09/25 11:15:52;;;;;;;4.10;3.63;;;;;;;;;;5032458;28;20384;-77
2022/09/25 11:18:35;;;;;;;5.80;4.03;;;;;;;;;;5033821;28;20322;-76
2022/09/25 11:21:02;;;;;;;5.85;4.55;;;;;;;;;;5034579;28;20388;-77
2022/09/25 11:23:39;;;;;;;13.80;8.07;;;;;;;;;;5048550;28;20010;-76
2022/09/25 11:26:11;;;;;;;5.82;3.42;;;;;;;;;;5054101;28;20040;-76
2022/09/25 11:28:40;;;;;;;5.60;3.53;;;;;;;;;;5053637;28;20121;-75
2022/09/25 11:31:23;;;;;;;3.70;3.30;;;;;;;;;;5039731;28;20025;-76
2022/09/25 11:33:49;;;;;;;5.43;2.85;;;;;;;;;;5046433;28;20026;-77
2022/09/25 11:36:19;;;;;;;3.80;2.78;;;;;;;;;;5044025;28;20014;-76
2022/09/25 11:41:50;;;;;;;3.88;2.28;;;;;;;;;;5056241;28;20025;-77
2022/09/25 11:44:22;;;;;;;3.80;2.88;;;;;;;;;;5054429;28;20044;-77
2022/09/25 11:47:05;;;;;;;4.95;3.78;;;;;;;;;;5050436;28;20032;-77
2022/09/25 11:49:38;;;;;;;5.05;3.83;;;;;;;;;;5015888;28;20049;-77
2022/09/25 11:52:15;;;;;;;3.70;3.17;;;;;;;;;;5033761;28;20031;-77
2022/09/25 11:55:01;;;;;;;8.13;3.10;;;;;;;;;;5033108;28;20026;-77
2022/09/25 11:57:48;;;;;;;2.53;2.33;;;;;;;;;;5032412;28;20411;-77
2022/09/25 12:00:18;;;;;;;2.42;1.88;;;;;;;;;;5033392;28;20057;-76
2022/09/25 12:02:44;;;;;;;2.73;2.10;;;;;;;;;;5032851;28;20513;-76
2022/09/25 12:05:23;;;;;;;2.42;2.20;;;;;;;;;;5032002;28;20298;-77
2022/09/25 12:08:02;;;;;;;2.53;2.22;;;;;;;;;;5030540;28;20082;-76
2022/09/25 12:10:35;;;;;;;3.65;2.53;;;;;;;;;;5032149;28;20020;-77
2022/09/25 12:13:04;;;;;;;3.47;2.90;;;;;;;;;;5032776;28;20017;-77
2022/09/25 12:15:42;;;;;;;3.60;2.50;;;;;;;;;;5032685;28;20036;-75
2022/09/25 12:18:11;;;;;;;3.78;2.30;;;;;;;;;;5031677;28;20025;-78
2022/09/25 12:20:58;;;;;;;7.13;3.10;;;;;;;;;;5032351;28;20029;-76
2022/09/25 12:23:30;;;;;;;3.35;2.47;;;;;;;;;;5032734;28;20026;-76
2022/09/25 12:25:56;;;;;;;4.30;3.05;;;;;;;;;;5032625;28;20025;-78
2022/09/25 12:28:28;;;;;;;2.58;2.38;;;;;;;;;;5032145;28;20064;-76
2022/09/25 12:30:57;;;;;;;3.20;2.65;;;;;;;;;;5031554;28;20443;-77
2022/09/25 12:33:33;;;;;;;3.13;2.80;;;;;;;;;;5031092;28;20029;-76
2022/09/25 12:36:18;;;;;;;3.22;2.92;;;;;;;;;;5031661;28;20032;-77
2022/09/25 12:38:51;;;;;;;3.75;3.35;;;;;;;;;;5031741;28;20507;-78
2022/09/25 12:41:20;;;;;;;3.42;3.13;;;;;;;;;;5030563;28;20014;-78
2022/09/25 12:43:51;;;;;;;3.08;2.53;;;;;;;;;;5032043;28;20475;-77
2022/09/25 12:46:26;;;;;;;4.25;3.22;;;;;;;;;;5034711;28;20017;-77
2022/09/25 12:49:06;;;;;;;3.85;2.67;;;;;;;;;;5038224;28;20344;-77
2022/09/25 12:51:40;;;;;;;5.00;2.70;;;;;;;;;;5031681;28;20021;-77
2022/09/25 12:54:13;;;;;;;4.57;2.38;;;;;;;;;;5029417;28;20025;-78
2022/09/25 12:56:46;;;;;;;3.17;2.40;;;;;;;;;;5030586;28;20022;-78
2022/09/25 12:59:16;;;;;;;3.10;2.80;;;;;;;;;;5030101;28;20064;-78
2022/09/25 13:01:44;;;;;;;2.92;2.63;;;;;;;;;;5030786;28;20507;-79
2022/09/25 13:04:23;;;;;;;3.40;2.90;;;;;;;;;;5030731;28;20104;-77
2022/09/25 13:06:59;;;;;;;5.68;2.90;;;;;;;;;;5030591;28;20028;-78
2022/09/25 13:09:30;;;;;;;3.08;2.83;;;;;;;;;;5031368;28;20079;-77
2022/09/25 13:12:00;;;;;;;3.20;2.75;;;;;;;;;;5031775;28;20021;-77
2022/09/25 13:14:45;;;;;;;3.10;2.80;;;;;;;;;;5031155;28;20033;-77
2022/09/25 13:17:12;;;;;;;3.17;2.88;;;;;;;;;;5030884;28;20021;-78
2022/09/25 13:19:38;;;;;;;5.20;2.65;;;;;;;;;;5031350;28;20468;-76
2022/09/25 13:22:04;;;;;;;4.80;3.25;;;;;;;;;;5032236;28;20035;-78
2022/09/25 13:24:38;;;;;;;4.55;3.20;;;;;;;;;;5030929;28;20025;-78
2022/09/25 13:27:05;;;;;;;3.53;2.92;;;;;;;;;;5031626;28;20040;-75
2022/09/25 13:29:37;;;;;;;5.97;3.60;;;;;;;;;;5031329;28;20030;-78
2022/09/25 13:32:14;;;;;;;4.00;3.50;;;;;;;;;;5032287;28;20394;-78
2022/09/25 13:34:41;;;;;;;5.80;3.55;;;;;;;;;;5031556;28;20430;-79
2022/09/25 13:37:09;;;;;;;5.47;3.28;;;;;;;;;;5030603;28;20029;-78
2022/09/25 13:42:37;;;;;;;3.75;3.22;;;;;;;;;;5031413;28;20032;-78
2022/09/25 13:45:24;;;;;;;6.72;3.83;;;;;;;;;;5031548;28;20095;-78
2022/09/25 13:47:51;;;;;;;3.72;3.17;;;;;;;;;;5029800;28;20026;-77
2022/09/25 13:50:18;;;;;;;3.55;3.25;;;;;;;;;;5031038;28;20029;-76
2022/09/25 13:53:15;;;;;;;4.55;3.60;;;;;;;;;;5030714;28;20360;-78
2022/09/25 13:55:34;;;;;;;3.65;3.20;;;;;;;;;;5031135;28;20033;-78
2022/09/25 13:58:01;;;;;;;6.18;3.10;;;;;;;;;;5030193;28;20010;-78
2022/09/25 14:00:32;;;;;;;4.60;3.42;;;;;;;;;;5032715;28;20074;-76
2022/09/25 14:03:01;;;;;;;4.40;3.42;;;;;;;;;;5034320;28;20025;-78
2022/09/25 14:05:34;;;;;;;5.30;3.40;;;;;;;;;;5034703;28;20509;-78
2022/09/25 14:08:07;;;;;;;4.47;2.95;;;;;;;;;;5035921;28;20048;-78
2022/09/25 14:10:34;;;;;;;7.03;3.72;;;;;;;;;;5036322;28;20377;-77
2022/09/25 14:13:01;;;;;;;3.97;3.08;;;;;;;;;;5031747;28;20035;-76
2022/09/25 14:15:33;;;;;;;4.28;3.20;;;;;;;;;;5031257;28;20017;-77
2022/09/25 14:18:00;;;;;;;4.68;3.40;;;;;;;;;;5034782;28;20021;-78
2022/09/25 14:20:30;;;;;;;4.30;3.25;;;;;;;;;;5030835;28;20041;-78
2022/09/25 14:22:58;;;;;;;4.97;3.50;;;;;;;;;;5031248;28;20116;-77
2022/09/25 14:25:37;;;;;;;3.53;3.22;;;;;;;;;;5031033;28;20032;-78
2022/09/25 14:28:04;;;;;;;4.80;3.30;;;;;;;;;;5030132;28;20017;-77
2022/09/25 14:30:31;;;;;;;6.28;2.97;;;;;;;;;;5035785;28;20030;-77
2022/09/25 14:33:07;;;;;;;5.43;4.63;;;;;;;;;;5031204;28;20472;-77
2022/09/25 14:35:50;;;;;;;5.35;4.30;;;;;;;;;;5026044;28;20026;-77
2022/09/25 14:38:42;;;;;;;5.95;4.20;;;;;;;;;;5036612;23;20037;-75
2022/09/25 14:41:08;;;;;;;7.85;4.25;;;;;;;;;;5012330;28;20034;-73
2022/09/25 14:43:41;;;;;;;5.13;3.92;;;;;;;;;;5014186;28;20109;-74
2022/09/25 14:46:18;;;;;;;3.92;3.58;;;;;;;;;;5014201;28;20025;-74
2022/09/25 14:48:46;;;;;;;4.75;4.25;;;;;;;;;;4992388;28;20057;-74
2022/09/25 14:51:14;;;;;;;10.38;4.38;;;;;;;;;;4993990;28;20106;-73
2022/09/25 14:53:45;;;;;;;4.88;3.80;;;;;;;;;;4994669;28;20428;-74
2022/09/25 14:56:14;;;;;;;6.60;4.22;;;;;;;;;;4994333;28;20081;-74
2022/09/25 14:58:44;;;;;;;4.30;3.90;;;;;;;;;;4993518;28;20069;-74
2022/09/25 15:01:17;;;;;;;4.15;3.75;;;;;;;;;;4994337;28;20026;-74
2022/09/25 15:03:45;;;;;;;6.97;4.40;;;;;;;;;;4994150;28;20057;-76
2022/09/25 15:06:11;;;;;;;5.95;3.50;;;;;;;;;;4993850;28;20034;-73
2022/09/25 15:08:39;;;;;;;4.97;3.80;;;;;;;;;;4993480;28;20018;-74
2022/09/25 15:11:16;;;;;;;4.72;4.03;;;;;;;;;;4993836;28;20037;-74
2022/09/25 15:13:43;;;;;;;5.88;4.07;;;;;;;;;;4993973;28;20483;-74
2022/09/25 15:19:16;;;;;;;5.30;3.70;;;;;;;;;;4993872;28;20073;-73